^^
Grace C. Lehan Memorial Weather Station Historical Data
Daily Summary for April 24, 2021 Units:  Both    English   Metric
Daily Weekly Monthly Yearly
  High: Low: Average:
Temperature: 75.3 °F /  24.1 °C 58.7 °F /  14.8 °C 67.4 °F /  19.7 °C
Dew Point: 71.8 °F /  22.1 °C 55.8 °F /  13.2 °C 62.6 °F /  17 °C
Humidity: 96% 60.3% 85%
Wind Speed: 2.6mph /  4.2km/h - 0.3mph /  0.5km/h
Wind Gust: 13mph /  20.9km/h - -
Wind- - SSW
Pressure: 30.02 in /  1016.5 hPa 29.90 in /  1012.4 hPa -
Precipitation: 1.42 in /  36.07 mm    
 
 
Tabular Data for April 24, 2021
Time Temperature Dew Point Pressure Wind Wind Speed Wind Gust Humidity Rainfall Rate (Hourly) solar
00:00 75.1 °F /  23.9 °C 71.6 °F /  22 °C 29.93in /  1013.4hPa Calm   7mph /  11.3km/h 89% 0.00in /  0mm 0 W/m2
00:09 75.2 °F /  24 °C 71.7 °F /  22.1 °C 29.93in /  1013.4hPa SE 1.2mph /  1.9km/h 11mph /  17.7km/h 89% 0.00in /  0mm 0 W/m2
00:14 75.2 °F /  24 °C 71.8 °F /  22.1 °C 29.93in /  1013.4hPa SE 1.3mph /  2.1km/h 11mph /  17.7km/h 89% 0.00in /  0mm 0 W/m2
00:19 75.3 °F /  24.1 °C 71.8 °F /  22.1 °C 29.93in /  1013.4hPa ESE 1.1mph /  1.8km/h 11mph /  17.7km/h 89% 0.00in /  0mm 0 W/m2
00:24 75.3 °F /  24.1 °C 71.8 °F /  22.1 °C 29.92in /  1013.1hPa ESE 0.9mph /  1.4km/h 11mph /  17.7km/h 89% 0.00in /  0mm 0 W/m2
00:29 75.3 °F /  24.1 °C 71.8 °F /  22.1 °C 29.92in /  1013.1hPa ESE 1.3mph /  2.1km/h 11mph /  17.7km/h 89% 0.00in /  0mm 0 W/m2
00:34 75.3 °F /  24.1 °C 71.7 °F /  22.1 °C 29.92in /  1013.1hPa ESE 0.9mph /  1.4km/h 11mph /  17.7km/h 88.7% 0.00in /  0mm 0 W/m2
00:39 75.2 °F /  24 °C 71.4 °F /  21.9 °C 29.92in /  1013.1hPa ESE 0.5mph /  0.8km/h 6mph /  9.7km/h 88% 0.00in /  0mm 0 W/m2
00:44 75.2 °F /  24 °C 71.4 °F /  21.9 °C 29.93in /  1013.4hPa ESE 0.5mph /  0.8km/h 7mph /  11.3km/h 88% 0.00in /  0mm 0 W/m2
00:49 75.2 °F /  24 °C 71.4 °F /  21.9 °C 29.93in /  1013.4hPa SSE 1.1mph /  1.8km/h 7mph /  11.3km/h 88% 0.00in /  0mm 0 W/m2
00:54 75.2 °F /  24 °C 71.4 °F /  21.9 °C 29.93in /  1013.4hPa ESE 0.7mph /  1.1km/h 9mph /  14.5km/h 88% 0.00in /  0mm 0 W/m2
00:59 75.2 °F /  24 °C 71.4 °F /  21.9 °C 29.93in /  1013.4hPa SE 1.1mph /  1.8km/h 9mph /  14.5km/h 88% 0.00in /  0mm 0 W/m2
01:04 75.2 °F /  24 °C 71.4 °F /  21.9 °C 29.93in /  1013.4hPa SE 1.4mph /  2.3km/h 9mph /  14.5km/h 88% 0.00in /  0mm 0 W/m2
01:09 75.2 °F /  24 °C 71.4 °F /  21.9 °C 29.92in /  1013.1hPa ESE 0.7mph /  1.1km/h 9mph /  14.5km/h 88% 0.00in /  0mm 0 W/m2
01:14 75.1 °F /  23.9 °C 71.4 °F /  21.9 °C 29.92in /  1013.1hPa SE 1.3mph /  2.1km/h 9mph /  14.5km/h 88% 0.00in /  0mm 0 W/m2
01:19 75.1 °F /  23.9 °C 71.3 °F /  21.8 °C 29.92in /  1013.1hPa ESE 1.2mph /  1.9km/h 9mph /  14.5km/h 88% 0.00in /  0mm 0 W/m2
01:24 75.1 °F /  23.9 °C 71.3 °F /  21.8 °C 29.92in /  1013.1hPa ESE 0.9mph /  1.4km/h 9mph /  14.5km/h 88% 0.00in /  0mm 0 W/m2
01:29 75 °F /  23.9 °C 71.2 °F /  21.8 °C 29.92in /  1013.1hPa ESE 0.5mph /  0.8km/h 9mph /  14.5km/h 88% 0.00in /  0mm 0 W/m2
01:34 75 °F /  23.9 °C 71.2 °F /  21.8 °C 29.92in /  1013.1hPa SE 0.9mph /  1.4km/h 9mph /  14.5km/h 88% 0.00in /  0mm 0 W/m2
01:39 74.9 °F /  23.8 °C 71.2 °F /  21.8 °C 29.92in /  1013.1hPa SSE 0.9mph /  1.4km/h 11mph /  17.7km/h 88% 0.00in /  0mm 0 W/m2
01:44 74.9 °F /  23.8 °C 71.1 °F /  21.7 °C 29.92in /  1013.1hPa SSE 0.3mph /  0.5km/h 11mph /  17.7km/h 88% 0.00in /  0mm 0 W/m2
01:49 74.9 °F /  23.8 °C 71.1 °F /  21.7 °C 29.92in /  1013.1hPa SE 1.5mph /  2.4km/h 11mph /  17.7km/h 88% 0.00in /  0mm 0 W/m2
01:54 74.9 °F /  23.8 °C 71.1 °F /  21.7 °C 29.92in /  1013.1hPa SE 2.6mph /  4.2km/h 12mph /  19.3km/h 88% 0.00in /  0mm 0 W/m2
01:59 74.9 °F /  23.8 °C 71.1 °F /  21.7 °C 29.92in /  1013.1hPa SE 1.3mph /  2.1km/h 12mph /  19.3km/h 88% 0.00in /  0mm 0 W/m2
02:04 74.8 °F /  23.8 °C 71 °F /  21.7 °C 29.91in /  1012.8hPa SE 1.1mph /  1.8km/h 12mph /  19.3km/h 88% 0.00in /  0mm 0 W/m2
02:09 74.8 °F /  23.8 °C 71 °F /  21.7 °C 29.91in /  1012.8hPa ESE 1.1mph /  1.8km/h 13mph /  20.9km/h 88% 0.00in /  0mm 0 W/m2
02:14 74.8 °F /  23.8 °C 71.1 °F /  21.7 °C 29.91in /  1012.8hPa ESE 1.3mph /  2.1km/h 13mph /  20.9km/h 88.2% 0.00in /  0mm 0 W/m2
02:19 74.8 °F /  23.8 °C 71.1 °F /  21.7 °C 29.91in /  1012.8hPa SE 1.8mph /  2.9km/h 13mph /  20.9km/h 88.4% 0.00in /  0mm 0 W/m2
02:24 74.8 °F /  23.8 °C 71.1 °F /  21.7 °C 29.91in /  1012.8hPa SE 1.2mph /  1.9km/h 13mph /  20.9km/h 88% 0.00in /  0mm 0 W/m2
02:29 74.8 °F /  23.8 °C 71.3 °F /  21.8 °C 29.91in /  1012.8hPa SSE 1.5mph /  2.4km/h 13mph /  20.9km/h 88.8% 0.00in /  0mm 0 W/m2
02:34 74.8 °F /  23.8 °C 71.4 °F /  21.9 °C 29.92in /  1013.1hPa SE 0.6mph /  1km/h 13mph /  20.9km/h 89% 0.00in /  0mm 0 W/m2
02:39 74.8 °F /  23.8 °C 71.3 °F /  21.8 °C 29.92in /  1013.1hPa South 0.7mph /  1.1km/h 6mph /  9.7km/h 89% 0.00in /  0mm 0 W/m2
02:44 74.8 °F /  23.8 °C 71.3 °F /  21.8 °C 29.91in /  1012.8hPa SE 0.8mph /  1.3km/h 9mph /  14.5km/h 89% 0.00in /  0mm 0 W/m2
02:49 74.8 °F /  23.8 °C 71.3 °F /  21.8 °C 29.91in /  1012.8hPa South 0.5mph /  0.8km/h 9mph /  14.5km/h 89% 0.00in /  0mm 0 W/m2
02:54 74.8 °F /  23.8 °C 71.3 °F /  21.8 °C 29.90in /  1012.4hPa ESE 1.7mph /  2.7km/h 12mph /  19.3km/h 89% 0.01in /  0.25mm 0 W/m2
02:59 74.7 °F /  23.7 °C 71.4 °F /  21.9 °C 29.90in /  1012.4hPa SSE 0.8mph /  1.3km/h 12mph /  19.3km/h 89.5% 0.02in /  0.51mm 0 W/m2
03:04 74.5 °F /  23.6 °C 71.4 °F /  21.9 °C 29.90in /  1012.4hPa South 0.4mph /  0.6km/h 12mph /  19.3km/h 90% 0.02in /  0.51mm 0 W/m2
03:09 74.3 °F /  23.5 °C 71.4 °F /  21.9 °C 29.91in /  1012.8hPa South 1.1mph /  1.8km/h 6mph /  9.7km/h 90.7% 0.02in /  0.51mm 0 W/m2
03:14 74.2 °F /  23.4 °C 71.4 °F /  21.9 °C 29.91in /  1012.8hPa Calm   6mph /  9.7km/h 91% 0.04in /  1.02mm 0 W/m2
03:19 74 °F /  23.3 °C 71.2 °F /  21.8 °C 29.90in /  1012.4hPa SSE 0.9mph /  1.4km/h 6mph /  9.7km/h 91% 0.04in /  1.02mm 0 W/m2
03:24 73.9 °F /  23.3 °C 71.4 °F /  21.9 °C 29.91in /  1012.8hPa South 0.5mph /  0.8km/h 6mph /  9.7km/h 91.8% 0.04in /  1.02mm 0 W/m2
03:29 73.8 °F /  23.2 °C 71.3 °F /  21.8 °C 29.91in /  1012.8hPa SW 0.7mph /  1.1km/h 6mph /  9.7km/h 92% 0.05in /  1.27mm 0 W/m2
03:34 73.7 °F /  23.2 °C 71.3 °F /  21.8 °C 29.91in /  1012.8hPa South 0.1mph /  0.2km/h 6mph /  9.7km/h 92% 0.06in /  1.52mm 0 W/m2
03:39 73.7 °F /  23.2 °C 71.4 °F /  21.9 °C 29.91in /  1012.8hPa SE 0.1mph /  0.2km/h 3mph /  4.8km/h 92.4% 0.06in /  1.52mm 0 W/m2
03:44 73.7 °F /  23.2 °C 71.5 °F /  21.9 °C 29.91in /  1012.8hPa SW 0.3mph /  0.5km/h 4mph /  6.4km/h 93% 0.06in /  1.52mm 0 W/m2
03:49 73.6 °F /  23.1 °C 71.5 °F /  21.9 °C 29.91in /  1012.8hPa Calm   4mph /  6.4km/h 93% 0.06in /  1.52mm 0 W/m2
03:54 73.5 °F /  23.1 °C 71.4 °F /  21.9 °C 29.90in /  1012.4hPa SE 0.7mph /  1.1km/h 6mph /  9.7km/h 93% 0.07in /  1.78mm 0 W/m2
03:59 73.5 °F /  23.1 °C 71.4 °F /  21.9 °C 29.91in /  1012.8hPa SE 0.8mph /  1.3km/h 6mph /  9.7km/h 93% 0.08in /  2.03mm 0 W/m2
04:00 73.5 °F /  23.1 °C 71.4 °F /  21.9 °C 29.91in /  1012.8hPa Calm   6mph /  9.7km/h 93% 0.08in /  2.03mm 0 W/m2
04:09 73.5 °F /  23.1 °C 71.3 °F /  21.8 °C 29.92in /  1013.1hPa Calm   2mph /  3.2km/h 93% 0.18in /  4.57mm 0 W/m2
04:14 73.2 °F /  22.9 °C 70.8 °F /  21.6 °C 29.92in /  1013.1hPa WSW 0.2mph /  0.3km/h 2mph /  3.2km/h 92.2% 0.23in /  5.84mm 0 W/m2
04:19 72.6 °F /  22.6 °C 70.1 °F /  21.2 °C 29.92in /  1013.1hPa WSW 0.7mph /  1.1km/h 6mph /  9.7km/h 92% 0.27in /  6.86mm 0 W/m2
04:24 71.8 °F /  22.1 °C 69.1 °F /  20.6 °C 29.93in /  1013.4hPa WSW 0.3mph /  0.5km/h 6mph /  9.7km/h 91% 0.34in /  8.64mm 0 W/m2
04:29 71.1 °F /  21.7 °C 68.3 °F /  20.2 °C 29.93in /  1013.4hPa WSW 0.1mph /  0.2km/h 6mph /  9.7km/h 91% 0.38in /  9.65mm 0 W/m2
04:34 70.4 °F /  21.3 °C 67.6 °F /  19.8 °C 29.92in /  1013.1hPa WSW 0.4mph /  0.6km/h 6mph /  9.7km/h 91% 0.48in /  12.19mm 0 W/m2
04:39 69.9 °F /  21.1 °C 67.3 °F /  19.6 °C 29.93in /  1013.4hPa West 0.6mph /  1km/h 5mph /  8km/h 91.7% 0.74in /  18.8mm 0 W/m2
04:44 69.4 °F /  20.8 °C 67 °F /  19.4 °C 29.93in /  1013.4hPa WNW 0.6mph /  1km/h 5mph /  8km/h 92% 0.87in /  22.1mm 0 W/m2
04:49 68.9 °F /  20.5 °C 66.6 °F /  19.2 °C 29.92in /  1013.1hPa Calm   5mph /  8km/h 92.2% 0.91in /  23.11mm 0 W/m2
04:54 68.7 °F /  20.4 °C 66.6 °F /  19.2 °C 29.92in /  1013.1hPa Calm   5mph /  8km/h 93% 0.94in /  23.88mm 0 W/m2
04:59 68.5 °F /  20.3 °C 66.4 °F /  19.1 °C 29.92in /  1013.1hPa WNW 0.2mph /  0.3km/h 5mph /  8km/h 93% 0.94in /  23.88mm 0 W/m2
05:04 68.2 °F /  20.1 °C 66.1 °F /  18.9 °C 29.92in /  1013.1hPa West 0.4mph /  0.6km/h 5mph /  8km/h 93% 0.94in /  23.88mm 0 W/m2
05:09 68 °F /  20 °C 66.1 °F /  18.9 °C 29.92in /  1013.1hPa Calm   3mph /  4.8km/h 93.6% 0.92in /  23.37mm 0 W/m2
05:14 67.9 °F /  19.9 °C 66.1 °F /  18.9 °C 29.92in /  1013.1hPa Calm   3mph /  4.8km/h 94% 0.93in /  23.62mm 0 W/m2
05:19 67.7 °F /  19.8 °C 65.9 °F /  18.8 °C 29.91in /  1012.8hPa Calm   3mph /  4.8km/h 94% 0.93in /  23.62mm 0 W/m2
05:24 67.6 °F /  19.8 °C 65.8 °F /  18.8 °C 29.92in /  1013.1hPa Calm   3mph /  4.8km/h 94% 0.94in /  23.88mm 0 W/m2
05:29 67.6 °F /  19.8 °C 65.8 °F /  18.8 °C 29.92in /  1013.1hPa WNW 0.6mph /  1km/h 4mph /  6.4km/h 94% 0.99in /  25.15mm 0 W/m2
05:34 67.6 °F /  19.8 °C 65.9 °F /  18.8 °C 29.92in /  1013.1hPa Calm   4mph /  6.4km/h 94.5% 0.99in /  25.15mm 0 W/m2
05:39 67.5 °F /  19.7 °C 66 °F /  18.9 °C 29.91in /  1012.8hPa Calm     95% 0.70in /  17.78mm 0 W/m2
05:44 67.5 °F /  19.7 °C 66 °F /  18.9 °C 29.91in /  1012.8hPa Calm     95% 0.70in /  17.78mm 0 W/m2
05:49 67.4 °F /  19.7 °C 65.9 °F /  18.8 °C 29.92in /  1013.1hPa Calm     95% 0.70in /  17.78mm 0 W/m2
05:54 67.4 °F /  19.7 °C 65.9 °F /  18.8 °C 29.92in /  1013.1hPa Calm     95% 0.70in /  17.78mm 0 W/m2
05:59 67.4 °F /  19.7 °C 65.9 °F /  18.8 °C 29.92in /  1013.1hPa Calm     95% 0.70in /  17.78mm 0 W/m2
06:04 67.4 °F /  19.7 °C 65.9 °F /  18.8 °C 29.93in /  1013.4hPa Calm     95% 0.70in /  17.78mm 0 W/m2
06:09 67.2 °F /  19.6 °C 65.8 °F /  18.8 °C 29.93in /  1013.4hPa WNW 0.1mph /  0.2km/h 1mph /  1.6km/h 95% 0.12in /  3.05mm 0 W/m2
06:14 67.1 °F /  19.5 °C 65.6 °F /  18.7 °C 29.93in /  1013.4hPa West 0.6mph /  1km/h 5mph /  8km/h 95% 0.12in /  3.05mm 0 W/m2
06:19 66.9 °F /  19.4 °C 65.5 °F /  18.6 °C 29.93in /  1013.4hPa West 0.1mph /  0.2km/h 5mph /  8km/h 95% 0.12in /  3.05mm 0 W/m2
06:24 66.8 °F /  19.3 °C 65.3 °F /  18.5 °C 29.93in /  1013.4hPa West 0.3mph /  0.5km/h 5mph /  8km/h 95% 0.12in /  3.05mm 0 W/m2
06:29 66.6 °F /  19.2 °C 65.1 °F /  18.4 °C 29.93in /  1013.4hPa West 1.1mph /  1.8km/h 6mph /  9.7km/h 95% 0.12in /  3.05mm 0 W/m2
06:34 66.4 °F /  19.1 °C 64.9 °F /  18.3 °C 29.93in /  1013.4hPa WNW 0.8mph /  1.3km/h 6mph /  9.7km/h 95% 0.12in /  3.05mm 0 W/m2
06:39 66.2 °F /  19 °C 64.7 °F /  18.2 °C 29.93in /  1013.4hPa SW 1.4mph /  2.3km/h 7mph /  11.3km/h 95% 0.04in /  1.02mm 0 W/m2
06:43 66 °F /  18.9 °C 64.6 °F /  18.1 °C 29.93in /  1013.4hPa SW 0.1mph /  0.2km/h 7mph /  11.3km/h 95% 0.04in /  1.02mm 0 W/m2
07:00 65.7 °F /  18.7 °C 64.2 °F /  17.9 °C 29.93in /  1013.4hPa WSW 1mph /  1.6km/h 8mph /  12.9km/h 95% 0.00in /  0mm 0 W/m2
07:30 65 °F /  18.3 °C 63.5 °F /  17.5 °C 29.94in /  1013.8hPa West 1mph /  1.6km/h 7mph /  11.3km/h 95% 0.00in /  0mm 0 W/m2
08:04 64.2 °F /  17.9 °C 62.7 °F /  17.1 °C 29.98in /  1015.1hPa WSW 0.5mph /  0.8km/h 7mph /  11.3km/h 95% 0.10in /  2.54mm 11 W/m2
08:09 64 °F /  17.8 °C 62.5 °F /  16.9 °C 29.98in /  1015.1hPa West 1.5mph /  2.4km/h 9mph /  14.5km/h 95% 0.10in /  2.54mm 12 W/m2
08:14 63.8 °F /  17.7 °C 62.3 °F /  16.8 °C 29.97in /  1014.8hPa West 2mph /  3.2km/h 9mph /  14.5km/h 95% 0.10in /  2.54mm 12 W/m2
08:19 63.5 °F /  17.5 °C 62.1 °F /  16.7 °C 29.97in /  1014.8hPa WSW 0.3mph /  0.5km/h 9mph /  14.5km/h 95% 0.12in /  3.05mm 5 W/m2
08:24 63.3 °F /  17.4 °C 61.8 °F /  16.6 °C 29.96in /  1014.4hPa West 2mph /  3.2km/h 9mph /  14.5km/h 95% 0.14in /  3.56mm 0 W/m2
08:29 63.1 °F /  17.3 °C 61.6 °F /  16.4 °C 29.97in /  1014.8hPa West 0.8mph /  1.3km/h 9mph /  14.5km/h 95% 0.16in /  4.06mm 0 W/m2
08:34 62.8 °F /  17.1 °C 61.4 °F /  16.3 °C 29.98in /  1015.1hPa West 0.4mph /  0.6km/h 9mph /  14.5km/h 95% 1.14in /  28.96mm 0 W/m2
08:39 62.7 °F /  17.1 °C 61.3 °F /  16.3 °C 29.98in /  1015.1hPa West 0.2mph /  0.3km/h 5mph /  8km/h 95% 1.16in /  29.46mm 9 W/m2
08:44 62.6 °F /  17 °C 61.2 °F /  16.2 °C 29.97in /  1014.8hPa West 0.1mph /  0.2km/h 5mph /  8km/h 95% 1.17in /  29.72mm 9 W/m2
08:49 62.5 °F /  16.9 °C 61 °F /  16.1 °C 29.98in /  1015.1hPa Calm   5mph /  8km/h 95% 1.17in /  29.72mm 7 W/m2
08:54 62.4 °F /  16.9 °C 61 °F /  16.1 °C 29.98in /  1015.1hPa Calm   5mph /  8km/h 95% 1.17in /  29.72mm 11 W/m2
08:59 62.4 °F /  16.9 °C 60.9 °F /  16.1 °C 29.98in /  1015.1hPa Calm   5mph /  8km/h 95% 1.17in /  29.72mm 11 W/m2
09:04 62.3 °F /  16.8 °C 60.8 °F /  16 °C 29.98in /  1015.1hPa West 0.2mph /  0.3km/h 5mph /  8km/h 95% 1.17in /  29.72mm 12 W/m2
09:09 62.2 °F /  16.8 °C 60.8 °F /  16 °C 30.00in /  1015.8hPa Calm   4mph /  6.4km/h 95% 0.07in /  1.78mm 9 W/m2
09:14 62.2 °F /  16.8 °C 60.7 °F /  15.9 °C 30.01in /  1016.1hPa Calm   4mph /  6.4km/h 95% 0.08in /  2.03mm 7 W/m2
09:19 62.1 °F /  16.7 °C 60.7 °F /  15.9 °C 30.01in /  1016.1hPa Calm   4mph /  6.4km/h 95% 0.09in /  2.29mm 7 W/m2
09:24 62 °F /  16.7 °C 60.6 °F /  15.9 °C 30.00in /  1015.8hPa Calm   4mph /  6.4km/h 95% 0.10in /  2.54mm 7 W/m2
09:29 62 °F /  16.7 °C 60.5 °F /  15.8 °C 30.01in /  1016.1hPa Calm   4mph /  6.4km/h 95% 0.11in /  2.79mm 11 W/m2
09:34 61.8 °F /  16.6 °C 60.4 °F /  15.8 °C 30.01in /  1016.1hPa West 1.2mph /  1.9km/h 7mph /  11.3km/h 95% 0.12in /  3.05mm 12 W/m2
09:39 61.5 °F /  16.4 °C 60 °F /  15.6 °C 30.00in /  1015.8hPa WSW 0.6mph /  1km/h 7mph /  11.3km/h 95% 0.12in /  3.05mm 16 W/m2
09:44 61 °F /  16.1 °C 59.6 °F /  15.3 °C 30.00in /  1015.8hPa WNW 1.8mph /  2.9km/h 7mph /  11.3km/h 95% 0.12in /  3.05mm 32 W/m2
09:49 60.8 °F /  16 °C 59.4 °F /  15.2 °C 30.00in /  1015.8hPa Calm   7mph /  11.3km/h 95% 0.13in /  3.3mm 35 W/m2
09:54 60.8 °F /  16 °C 59.4 °F /  15.2 °C 30.00in /  1015.8hPa Calm   7mph /  11.3km/h 95% 0.13in /  3.3mm 60 W/m2
09:59 60.9 °F /  16.1 °C 59.5 °F /  15.3 °C 30.00in /  1015.8hPa Calm   7mph /  11.3km/h 95.3% 0.13in /  3.3mm 79 W/m2
10:04 61 °F /  16.1 °C 59.8 °F /  15.4 °C 30.00in /  1015.8hPa WNW 0.1mph /  0.2km/h 7mph /  11.3km/h 95.8% 0.13in /  3.3mm 84 W/m2
10:09 61.1 °F /  16.2 °C 59.9 °F /  15.5 °C 30.00in /  1015.8hPa Calm   2mph /  3.2km/h 96% 0.07in /  1.78mm 63 W/m2
10:14 61 °F /  16.1 °C 59.7 °F /  15.4 °C 29.99in /  1015.5hPa Calm   2mph /  3.2km/h 95.5% 0.08in /  2.03mm 83 W/m2
10:19 60.9 °F /  16.1 °C 59.5 °F /  15.3 °C 29.99in /  1015.5hPa Calm   2mph /  3.2km/h 95% 0.09in /  2.29mm 120 W/m2
10:24 60.9 °F /  16.1 °C 59.6 °F /  15.3 °C 29.99in /  1015.5hPa WNW 0.5mph /  0.8km/h 3mph /  4.8km/h 95.3% 0.09in /  2.29mm 350 W/m2
10:29 61.2 °F /  16.2 °C 60.1 °F /  15.6 °C 29.99in /  1015.5hPa Calm   3mph /  4.8km/h 96% 0.09in /  2.29mm 313 W/m2
10:33 61.6 °F /  16.4 °C 60.4 °F /  15.8 °C 29.99in /  1015.5hPa Calm   3mph /  4.8km/h 96% 0.09in /  2.29mm 178 W/m2
10:39 61.5 °F /  16.4 °C 60.2 °F /  15.7 °C 29.99in /  1015.5hPa Calm     95.3% 0.04in /  1.02mm 248 W/m2
10:44 61.5 °F /  16.4 °C 60 °F /  15.6 °C 29.98in /  1015.1hPa Calm     95% 0.04in /  1.02mm 304 W/m2
10:49 61.3 °F /  16.3 °C 59.8 °F /  15.4 °C 29.99in /  1015.5hPa Calm     94.9% 0.04in /  1.02mm 148 W/m2
10:54 61.1 °F /  16.2 °C 59.4 °F /  15.2 °C 29.99in /  1015.5hPa Calm     94% 0.04in /  1.02mm 183 W/m2
10:59 61.1 °F /  16.2 °C 59.4 °F /  15.2 °C 29.99in /  1015.5hPa Calm     94% 0.04in /  1.02mm 236 W/m2
11:04 61.1 °F /  16.2 °C 59.4 °F /  15.2 °C 30.00in /  1015.8hPa Calm     94% 0.04in /  1.02mm 207 W/m2
11:09 61.3 °F /  16.3 °C 59.6 °F /  15.3 °C 30.00in /  1015.8hPa Calm     94% 0.02in /  0.51mm 146 W/m2
11:14 61.6 °F /  16.4 °C 60.1 °F /  15.6 °C 30.00in /  1015.8hPa Calm     95% 0.02in /  0.51mm 146 W/m2
11:19 61.8 °F /  16.6 °C 60.1 °F /  15.6 °C 30.00in /  1015.8hPa Calm     94% 0.02in /  0.51mm 125 W/m2
11:24 61.8 °F /  16.6 °C 60.1 °F /  15.6 °C 30.00in /  1015.8hPa Calm     94% 0.02in /  0.51mm 134 W/m2
11:29 61.8 °F /  16.6 °C 60.1 °F /  15.6 °C 30.00in /  1015.8hPa Calm     94% 0.02in /  0.51mm 125 W/m2
11:34 61.8 °F /  16.6 °C 59.8 °F /  15.4 °C 30.00in /  1015.8hPa Calm     93.1% 0.02in /  0.51mm 151 W/m2
11:39 61.8 °F /  16.6 °C 59.8 °F /  15.4 °C 30.00in /  1015.8hPa Calm     93.2% 0.00in /  0mm 146 W/m2
11:44 62 °F /  16.7 °C 60.2 °F /  15.7 °C 30.00in /  1015.8hPa WNW 0.1mph /  0.2km/h 2mph /  3.2km/h 94% 0.00in /  0mm 258 W/m2
11:49 62.3 °F /  16.8 °C 60.5 °F /  15.8 °C 30.00in /  1015.8hPa Calm   2mph /  3.2km/h 94% 0.00in /  0mm 290 W/m2
11:54 62.5 °F /  16.9 °C 60.7 °F /  15.9 °C 29.99in /  1015.5hPa Calm   2mph /  3.2km/h 93.8% 0.00in /  0mm 274 W/m2
11:59 62.7 °F /  17.1 °C 60.9 °F /  16.1 °C 30.00in /  1015.8hPa Calm   2mph /  3.2km/h 93.9% 0.00in /  0mm 183 W/m2
12:09 63.2 °F /  17.3 °C 61.2 °F /  16.2 °C 30.00in /  1015.8hPa Calm     93.4% 0.00in /  0mm 204 W/m2
12:14 63.3 °F /  17.4 °C 61.3 °F /  16.3 °C 30.00in /  1015.8hPa Calm     93% 0.00in /  0mm 183 W/m2
12:19 63.3 °F /  17.4 °C 61.3 °F /  16.3 °C 30.00in /  1015.8hPa Calm     93% 0.00in /  0mm 213 W/m2
12:24 63.4 °F /  17.4 °C 61.2 °F /  16.2 °C 30.00in /  1015.8hPa Calm     92.5% 0.00in /  0mm 213 W/m2
12:29 63.4 °F /  17.4 °C 61 °F /  16.1 °C 30.00in /  1015.8hPa Calm     92% 0.00in /  0mm 287 W/m2
12:34 63.5 °F /  17.5 °C 61.2 °F /  16.2 °C 29.99in /  1015.5hPa Calm     92% 0.00in /  0mm 287 W/m2
12:39 63.9 °F /  17.7 °C 61.8 °F /  16.6 °C 30.00in /  1015.8hPa Calm     93% 0.00in /  0mm 209 W/m2
12:44 64 °F /  17.8 °C 61.6 °F /  16.4 °C 30.00in /  1015.8hPa Calm     92% 0.00in /  0mm 146 W/m2
12:49 63.9 °F /  17.7 °C 61.2 °F /  16.2 °C 30.00in /  1015.8hPa Calm     91% 0.00in /  0mm 144 W/m2
12:54 64 °F /  17.8 °C 61.3 °F /  16.3 °C 30.00in /  1015.8hPa Calm     91% 0.00in /  0mm 195 W/m2
12:59 63.9 °F /  17.7 °C 61 °F /  16.1 °C 30.00in /  1015.8hPa Calm     90.3% 0.00in /  0mm 227 W/m2
13:04 63.9 °F /  17.7 °C 61 °F /  16.1 °C 30.00in /  1015.8hPa Calm     90.3% 0.00in /  0mm 253 W/m2
13:09 64 °F /  17.8 °C 61.1 °F /  16.2 °C 30.00in /  1015.8hPa Calm     90.2% 0.00in /  0mm 313 W/m2
13:14 64.2 °F /  17.9 °C 61.3 °F /  16.3 °C 30.00in /  1015.8hPa Calm     90.5% 0.00in /  0mm 369 W/m2
13:19 64.4 °F /  18 °C 61.5 °F /  16.4 °C 30.00in /  1015.8hPa Calm     90.3% 0.00in /  0mm 330 W/m2
13:24 64.8 °F /  18.2 °C 61.9 °F /  16.6 °C 30.00in /  1015.8hPa Calm     90.4% 0.00in /  0mm 316 W/m2
13:29 65.2 °F /  18.4 °C 62.2 °F /  16.8 °C 29.99in /  1015.5hPa Calm     90% 0.00in /  0mm 295 W/m2
13:34 65.7 °F /  18.7 °C 62.4 °F /  16.9 °C 29.99in /  1015.5hPa Calm   1mph /  1.6km/h 89.3% 0.00in /  0mm 315 W/m2
13:39 66.2 °F /  19 °C 62.8 °F /  17.1 °C 29.99in /  1015.5hPa Calm   1mph /  1.6km/h 88.7% 0.00in /  0mm 104 W/m2
13:44 66.6 °F /  19.2 °C 62.7 °F /  17.1 °C 29.99in /  1015.5hPa Calm   1mph /  1.6km/h 87.1% 0.00in /  0mm 83 W/m2
13:49 66.9 °F /  19.4 °C 62.4 °F /  16.9 °C 29.98in /  1015.1hPa WNW 0.1mph /  0.2km/h 2mph /  3.2km/h 85.5% 0.00in /  0mm 49 W/m2
13:54 67.1 °F /  19.5 °C 62.2 °F /  16.8 °C 29.98in /  1015.1hPa WNW 0.1mph /  0.2km/h 2mph /  3.2km/h 84.2% 0.00in /  0mm 77 W/m2
13:59 67.3 °F /  19.6 °C 62.2 °F /  16.8 °C 29.98in /  1015.1hPa WNW 0.1mph /  0.2km/h 2mph /  3.2km/h 83.8% 0.00in /  0mm 93 W/m2
14:04 67.6 °F /  19.8 °C 62.5 °F /  16.9 °C 29.98in /  1015.1hPa SW 0.4mph /  0.6km/h 5mph /  8km/h 83.7% 0.00in /  0mm 74 W/m2
14:09 67.8 °F /  19.9 °C 62.1 °F /  16.7 °C 29.98in /  1015.1hPa Calm   5mph /  8km/h 81.9% 0.00in /  0mm 49 W/m2
14:14 67.9 °F /  19.9 °C 62 °F /  16.7 °C 29.98in /  1015.1hPa SW 0.2mph /  0.3km/h 5mph /  8km/h 81.5% 0.00in /  0mm 77 W/m2
14:19 68.1 °F /  20.1 °C 62.3 °F /  16.8 °C 29.98in /  1015.1hPa SE 0.3mph /  0.5km/h 5mph /  8km/h 81.5% 0.00in /  0mm 207 W/m2
14:24 68.3 °F /  20.2 °C 62.3 °F /  16.8 °C 29.98in /  1015.1hPa Calm   5mph /  8km/h 81.2% 0.00in /  0mm 276 W/m2
14:29 68.5 °F /  20.3 °C 62.5 °F /  16.9 °C 29.98in /  1015.1hPa SW 0.1mph /  0.2km/h 5mph /  8km/h 81% 0.00in /  0mm 279 W/m2
14:34 68.8 °F /  20.4 °C 62.5 °F /  16.9 °C 29.97in /  1014.8hPa Calm   5mph /  8km/h 80.5% 0.00in /  0mm 359 W/m2
14:39 69 °F /  20.6 °C 62.6 °F /  17 °C 29.97in /  1014.8hPa Calm     79.9% 0.00in /  0mm 274 W/m2
14:44 69.3 °F /  20.7 °C 62.4 °F /  16.9 °C 29.97in /  1014.8hPa Calm     78.6% 0.00in /  0mm 311 W/m2
14:49 69.7 °F /  20.9 °C 62.6 °F /  17 °C 29.96in /  1014.4hPa SW 0.3mph /  0.5km/h 3mph /  4.8km/h 78% 0.00in /  0mm 348 W/m2
14:54 70.2 °F /  21.2 °C 63 °F /  17.2 °C 29.96in /  1014.4hPa SW 0.3mph /  0.5km/h 3mph /  4.8km/h 77.9% 0.00in /  0mm 295 W/m2
14:59 70.5 °F /  21.4 °C 62.5 °F /  16.9 °C 29.96in /  1014.4hPa Calm   3mph /  4.8km/h 75.7% 0.00in /  0mm 250 W/m2
15:04 70.6 °F /  21.4 °C 62 °F /  16.7 °C 29.95in /  1014.1hPa Calm   3mph /  4.8km/h 74.2% 0.00in /  0mm 234 W/m2
15:09 70.8 °F /  21.6 °C 62.9 °F /  17.2 °C 29.95in /  1014.1hPa Calm     75.9% 0.00in /  0mm 234 W/m2
15:14 71.1 °F /  21.7 °C 63.2 °F /  17.3 °C 29.95in /  1014.1hPa Calm     76.1% 0.00in /  0mm 114 W/m2
15:19 71.3 °F /  21.8 °C 62.7 °F /  17.1 °C 29.95in /  1014.1hPa Calm     74.1% 0.00in /  0mm 83 W/m2
15:24 71.6 °F /  22 °C 62.5 °F /  16.9 °C 29.95in /  1014.1hPa Calm     72.9% 0.00in /  0mm 174 W/m2
15:29 72 °F /  22.2 °C 62.3 °F /  16.8 °C 29.95in /  1014.1hPa Calm     71.6% 0.00in /  0mm 448 W/m2
15:34 72.4 °F /  22.4 °C 62.4 °F /  16.9 °C 29.95in /  1014.1hPa WSW 0.9mph /  1.4km/h 3mph /  4.8km/h 71% 0.00in /  0mm 144 W/m2
15:39 72.6 °F /  22.6 °C 62.2 °F /  16.8 °C 29.95in /  1014.1hPa WSW 1.1mph /  1.8km/h 9mph /  14.5km/h 69.9% 0.00in /  0mm 105 W/m2
15:44 72.8 °F /  22.7 °C 61.1 °F /  16.2 °C 29.95in /  1014.1hPa Calm   9mph /  14.5km/h 66.7% 0.00in /  0mm 214 W/m2
15:49 73 °F /  22.8 °C 61 °F /  16.1 °C 29.95in /  1014.1hPa WNW 0.1mph /  0.2km/h 9mph /  14.5km/h 66.2% 0.00in /  0mm 339 W/m2
15:54 73.2 °F /  22.9 °C 61.8 °F /  16.6 °C 29.95in /  1014.1hPa West 1.2mph /  1.9km/h 9mph /  14.5km/h 67.5% 0.00in /  0mm 144 W/m2
15:59 73.4 °F /  23 °C 61.8 °F /  16.6 °C 29.95in /  1014.1hPa WSW 1.4mph /  2.3km/h 9mph /  14.5km/h 67% 0.00in /  0mm 174 W/m2
16:09 73.9 °F /  23.3 °C 60.1 °F /  15.6 °C 29.95in /  1014.1hPa West 0.2mph /  0.3km/h 3mph /  4.8km/h 62% 0.00in /  0mm 171 W/m2
16:14 74.1 °F /  23.4 °C 60.4 °F /  15.8 °C 29.95in /  1014.1hPa West 0.1mph /  0.2km/h 3mph /  4.8km/h 62.2% 0.00in /  0mm 148 W/m2
16:19 74.2 °F /  23.4 °C 59.9 °F /  15.5 °C 29.95in /  1014.1hPa West 0.3mph /  0.5km/h 3mph /  4.8km/h 61.1% 0.00in /  0mm 93 W/m2
16:24 74.1 °F /  23.4 °C 59.5 °F /  15.3 °C 29.95in /  1014.1hPa West 0.7mph /  1.1km/h 4mph /  6.4km/h 60.3% 0.00in /  0mm 83 W/m2
16:29 74 °F /  23.3 °C 59.8 °F /  15.4 °C 29.96in /  1014.4hPa West 0.8mph /  1.3km/h 4mph /  6.4km/h 61.2% 0.00in /  0mm 77 W/m2
16:34 73.9 °F /  23.3 °C 60.5 °F /  15.8 °C 29.96in /  1014.4hPa West 1.4mph /  2.3km/h 4mph /  6.4km/h 62.9% 0.00in /  0mm 72 W/m2
16:39 73.9 °F /  23.3 °C 60.6 °F /  15.9 °C 29.96in /  1014.4hPa West 1mph /  1.6km/h 4mph /  6.4km/h 63.2% 0.00in /  0mm 70 W/m2
16:44 73.9 °F /  23.3 °C 60.4 °F /  15.8 °C 29.97in /  1014.8hPa WSW 0.7mph /  1.1km/h 6mph /  9.7km/h 62.7% 0.00in /  0mm 69 W/m2
16:49 73.9 °F /  23.3 °C 60.2 °F /  15.7 °C 29.97in /  1014.8hPa WSW 0.2mph /  0.3km/h 6mph /  9.7km/h 62.3% 0.00in /  0mm 51 W/m2
16:54 73.8 °F /  23.2 °C 60.1 °F /  15.6 °C 29.97in /  1014.8hPa WSW 0.1mph /  0.2km/h 6mph /  9.7km/h 62.2% 0.00in /  0mm 62 W/m2
16:59 73.7 °F /  23.2 °C 60.7 °F /  15.9 °C 29.97in /  1014.8hPa Calm   6mph /  9.7km/h 63.9% 0.00in /  0mm 62 W/m2
17:04 73.5 °F /  23.1 °C 60.7 °F /  15.9 °C 29.97in /  1014.8hPa WSW 0.1mph /  0.2km/h 6mph /  9.7km/h 64.4% 0.00in /  0mm 51 W/m2
17:09 73.2 °F /  22.9 °C 59.9 °F /  15.5 °C 29.97in /  1014.8hPa WSW 0.8mph /  1.3km/h 7mph /  11.3km/h 63.2% 0.00in /  0mm 42 W/m2
17:14 72.9 °F /  22.7 °C 59.1 °F /  15.1 °C 29.97in /  1014.8hPa Calm   7mph /  11.3km/h 61.8% 0.00in /  0mm 30 W/m2
17:19 72.7 °F /  22.6 °C 58.7 °F /  14.8 °C 29.97in /  1014.8hPa West 0.3mph /  0.5km/h 7mph /  11.3km/h 61.4% 0.00in /  0mm 28 W/m2
17:24 72.4 °F /  22.4 °C 58.4 °F /  14.7 °C 29.97in /  1014.8hPa Calm   7mph /  11.3km/h 61.3% 0.00in /  0mm 26 W/m2
17:29 72.2 °F /  22.3 °C 58.4 °F /  14.7 °C 29.97in /  1014.8hPa Calm   7mph /  11.3km/h 61.8% 0.00in /  0mm 25 W/m2
17:34 72 °F /  22.2 °C 58.3 °F /  14.6 °C 29.97in /  1014.8hPa West 0.3mph /  0.5km/h 7mph /  11.3km/h 62% 0.00in /  0mm 23 W/m2
17:39 71.8 °F /  22.1 °C 57.9 °F /  14.4 °C 29.97in /  1014.8hPa Calm   4mph /  6.4km/h 61.6% 0.00in /  0mm 21 W/m2
17:44 71.6 °F /  22 °C 58 °F /  14.4 °C 29.97in /  1014.8hPa Calm   4mph /  6.4km/h 62.2% 0.00in /  0mm 21 W/m2
17:49 71.4 °F /  21.9 °C 57.7 °F /  14.3 °C 29.98in /  1015.1hPa Calm   4mph /  6.4km/h 62% 0.00in /  0mm 19 W/m2
17:54 71.2 °F /  21.8 °C 57.6 °F /  14.2 °C 29.98in /  1015.1hPa Calm   4mph /  6.4km/h 62.1% 0.00in /  0mm 18 W/m2
17:59 71.1 °F /  21.7 °C 57.8 °F /  14.3 °C 29.98in /  1015.1hPa Calm   4mph /  6.4km/h 62.8% 0.00in /  0mm 18 W/m2
18:04 70.9 °F /  21.6 °C 57.9 °F /  14.4 °C 29.98in /  1015.1hPa Calm   4mph /  6.4km/h 63.3% 0.00in /  0mm 16 W/m2
18:09 70.7 °F /  21.5 °C 58 °F /  14.4 °C 29.99in /  1015.5hPa Calm     64% 0.00in /  0mm 16 W/m2
18:14 70.5 °F /  21.4 °C 57.8 °F /  14.3 °C 29.99in /  1015.5hPa Calm     64% 0.00in /  0mm 16 W/m2
18:19 70.3 °F /  21.3 °C 57.8 °F /  14.3 °C 29.99in /  1015.5hPa Calm   1mph /  1.6km/h 64.5% 0.00in /  0mm 16 W/m2
18:24 70.1 °F /  21.2 °C 57.9 °F /  14.4 °C 29.99in /  1015.5hPa Calm   1mph /  1.6km/h 65.3% 0.00in /  0mm 12 W/m2
18:29 69.9 °F /  21.1 °C 57.7 °F /  14.3 °C 29.99in /  1015.5hPa Calm   1mph /  1.6km/h 65.2% 0.00in /  0mm 12 W/m2
18:34 69.6 °F /  20.9 °C 57.6 °F /  14.2 °C 29.99in /  1015.5hPa Calm   1mph /  1.6km/h 65.7% 0.00in /  0mm 9 W/m2
18:39 69.4 °F /  20.8 °C 57.9 °F /  14.4 °C 29.99in /  1015.5hPa Calm     66.9% 0.00in /  0mm 5 W/m2
18:44 69.1 °F /  20.6 °C 57.7 °F /  14.3 °C 29.99in /  1015.5hPa Calm     67% 0.00in /  0mm 0 W/m2
18:49 68.9 °F /  20.5 °C 57.5 °F /  14.2 °C 29.99in /  1015.5hPa Calm     67% 0.00in /  0mm 0 W/m2
18:54 68.6 °F /  20.3 °C 57.7 °F /  14.3 °C 29.99in /  1015.5hPa Calm     68.3% 0.00in /  0mm 0 W/m2
18:59 68.3 °F /  20.2 °C 57.7 °F /  14.3 °C 29.99in /  1015.5hPa Calm     69% 0.00in /  0mm 0 W/m2
19:04 67.9 °F /  19.9 °C 57.4 °F /  14.1 °C 29.99in /  1015.5hPa Calm     69.1% 0.00in /  0mm 0 W/m2
19:09 67.5 °F /  19.7 °C 57.6 °F /  14.2 °C 30.00in /  1015.8hPa Calm     70.5% 0.00in /  0mm 0 W/m2
19:14 67.1 °F /  19.5 °C 57.7 °F /  14.3 °C 30.00in /  1015.8hPa Calm     71.7% 0.00in /  0mm 0 W/m2
19:19 66.7 °F /  19.3 °C 57.4 °F /  14.1 °C 30.00in /  1015.8hPa Calm     72% 0.00in /  0mm 0 W/m2
19:24 66.5 °F /  19.2 °C 57.2 °F /  14 °C 30.00in /  1015.8hPa Calm     72% 0.00in /  0mm 0 W/m2
19:29 66.2 °F /  19 °C 57.1 °F /  13.9 °C 30.00in /  1015.8hPa Calm     72.5% 0.00in /  0mm 0 W/m2
19:34 66.1 °F /  18.9 °C 57.5 °F /  14.2 °C 30.00in /  1015.8hPa Calm     73.8% 0.00in /  0mm 0 W/m2
19:39 65.9 °F /  18.8 °C 57.4 °F /  14.1 °C 30.00in /  1015.8hPa Calm     74% 0.00in /  0mm 0 W/m2
19:44 65.8 °F /  18.8 °C 57.3 °F /  14.1 °C 30.00in /  1015.8hPa Calm     74% 0.00in /  0mm 0 W/m2
19:49 65.7 °F /  18.7 °C 57.9 °F /  14.4 °C 30.01in /  1016.1hPa Calm     75.9% 0.00in /  0mm 0 W/m2
19:54 65.6 °F /  18.7 °C 58.7 °F /  14.8 °C 30.01in /  1016.1hPa Calm     78.2% 0.00in /  0mm 0 W/m2
19:59 65.5 °F /  18.6 °C 59 °F /  15 °C 30.01in /  1016.1hPa Calm     79.5% 0.00in /  0mm 0 W/m2
20:00 65.5 °F /  18.6 °C 59.2 °F /  15.1 °C 30.01in /  1016.1hPa Calm     80% 0.00in /  0mm 0 W/m2
20:09 65.6 °F /  18.7 °C 60.7 °F /  15.9 °C 30.02in /  1016.5hPa Calm     84% 0.00in /  0mm 0 W/m2
20:14 65.6 °F /  18.7 °C 60.4 °F /  15.8 °C 30.02in /  1016.5hPa Calm     83.3% 0.00in /  0mm 0 W/m2
20:19 65.6 °F /  18.7 °C 60.3 °F /  15.7 °C 30.02in /  1016.5hPa Calm     83% 0.00in /  0mm 0 W/m2
20:24 65.5 °F /  18.6 °C 60.2 °F /  15.7 °C 30.02in /  1016.5hPa Calm     83% 0.00in /  0mm 0 W/m2
20:29 65.4 °F /  18.6 °C 60.1 °F /  15.6 °C 30.02in /  1016.5hPa Calm     83% 0.00in /  0mm 0 W/m2
20:34 65.3 °F /  18.5 °C 60 °F /  15.6 °C 30.02in /  1016.5hPa Calm     83% 0.00in /  0mm 0 W/m2
20:39 65.2 °F /  18.4 °C 60.2 °F /  15.7 °C 30.02in /  1016.5hPa Calm     83.8% 0.00in /  0mm 0 W/m2
20:44 65.1 °F /  18.4 °C 60.2 °F /  15.7 °C 30.02in /  1016.5hPa Calm     84% 0.00in /  0mm 0 W/m2
20:49 64.9 °F /  18.3 °C 60 °F /  15.6 °C 30.02in /  1016.5hPa Calm     84% 0.00in /  0mm 0 W/m2
20:54 64.6 °F /  18.1 °C 59.7 °F /  15.4 °C 30.02in /  1016.5hPa Calm     84% 0.00in /  0mm 0 W/m2
20:59 64.3 °F /  17.9 °C 59.4 °F /  15.2 °C 30.02in /  1016.5hPa Calm     84% 0.00in /  0mm 0 W/m2
21:04 64.1 °F /  17.8 °C 59.3 °F /  15.2 °C 30.02in /  1016.5hPa Calm     84.5% 0.00in /  0mm 0 W/m2
21:09 63.8 °F /  17.7 °C 59.3 °F /  15.2 °C 30.02in /  1016.5hPa Calm     85% 0.00in /  0mm 0 W/m2
21:14 63.5 °F /  17.5 °C 59 °F /  15 °C 30.02in /  1016.5hPa Calm     85.2% 0.00in /  0mm 0 W/m2
21:19 63.2 °F /  17.3 °C 59 °F /  15 °C 30.02in /  1016.5hPa Calm     86% 0.00in /  0mm 0 W/m2
21:24 62.9 °F /  17.2 °C 58.7 °F /  14.8 °C 30.02in /  1016.5hPa Calm     86% 0.00in /  0mm 0 W/m2
21:29 62.6 °F /  17 °C 58.4 °F /  14.7 °C 30.02in /  1016.5hPa Calm     86% 0.00in /  0mm 0 W/m2
21:34 62.3 °F /  16.8 °C 58.3 °F /  14.6 °C 30.02in /  1016.5hPa Calm     86.7% 0.00in /  0mm 0 W/m2
21:39 62 °F /  16.7 °C 58.1 °F /  14.5 °C 30.02in /  1016.5hPa Calm     87% 0.00in /  0mm 0 W/m2
21:44 61.7 °F /  16.5 °C 58 °F /  14.4 °C 30.02in /  1016.5hPa Calm     87.5% 0.00in /  0mm 0 W/m2
21:49 61.5 °F /  16.4 °C 57.9 °F /  14.4 °C 30.02in /  1016.5hPa Calm     88% 0.00in /  0mm 0 W/m2
21:54 61.3 °F /  16.3 °C 57.8 °F /  14.3 °C 30.02in /  1016.5hPa Calm   1mph /  1.6km/h 88.3% 0.00in /  0mm 0 W/m2
21:59 61.1 °F /  16.2 °C 57.8 °F /  14.3 °C 30.02in /  1016.5hPa Calm   1mph /  1.6km/h 89% 0.00in /  0mm 0 W/m2
22:04 60.9 °F /  16.1 °C 57.6 °F /  14.2 °C 30.02in /  1016.5hPa West 0.1mph /  0.2km/h 2mph /  3.2km/h 89% 0.00in /  0mm 0 W/m2
22:09 60.7 °F /  15.9 °C 57.5 °F /  14.2 °C 30.02in /  1016.5hPa Calm   2mph /  3.2km/h 89.1% 0.00in /  0mm 0 W/m2
22:14 60.5 °F /  15.8 °C 57.5 °F /  14.2 °C 30.02in /  1016.5hPa Calm   2mph /  3.2km/h 90% 0.00in /  0mm 0 W/m2
22:19 60.4 °F /  15.8 °C 57.4 °F /  14.1 °C 30.02in /  1016.5hPa Calm   2mph /  3.2km/h 90% 0.00in /  0mm 0 W/m2
22:24 60.3 °F /  15.7 °C 57.3 °F /  14.1 °C 30.02in /  1016.5hPa Calm   2mph /  3.2km/h 90% 0.00in /  0mm 0 W/m2
22:29 60.2 °F /  15.7 °C 57.2 °F /  14 °C 30.02in /  1016.5hPa Calm   2mph /  3.2km/h 90% 0.00in /  0mm 0 W/m2
22:34 60 °F /  15.6 °C 57.1 °F /  13.9 °C 30.02in /  1016.5hPa Calm   2mph /  3.2km/h 90% 0.00in /  0mm 0 W/m2
22:39 59.9 °F /  15.5 °C 57 °F /  13.9 °C 30.02in /  1016.5hPa Calm     90% 0.00in /  0mm 0 W/m2
22:44 59.8 °F /  15.4 °C 56.8 °F /  13.8 °C 30.01in /  1016.1hPa Calm     90% 0.00in /  0mm 0 W/m2
22:49 59.6 °F /  15.3 °C 56.7 °F /  13.7 °C 30.01in /  1016.1hPa Calm     90% 0.00in /  0mm 0 W/m2
22:54 59.5 °F /  15.3 °C 56.6 °F /  13.7 °C 30.01in /  1016.1hPa Calm     90% 0.00in /  0mm 0 W/m2
22:59 59.4 °F /  15.2 °C 56.5 °F /  13.6 °C 30.01in /  1016.1hPa Calm     90% 0.00in /  0mm 0 W/m2
23:04 59.3 °F /  15.2 °C 56.4 °F /  13.6 °C 30.01in /  1016.1hPa Calm     90% 0.00in /  0mm 0 W/m2
23:09 59.3 °F /  15.2 °C 56.3 °F /  13.5 °C 30.01in /  1016.1hPa Calm     90% 0.00in /  0mm 0 W/m2
23:14 59.1 °F /  15.1 °C 56.2 °F /  13.4 °C 30.01in /  1016.1hPa Calm     90% 0.00in /  0mm 0 W/m2
23:19 59.1 °F /  15.1 °C 56.1 °F /  13.4 °C 30.02in /  1016.5hPa Calm     90% 0.00in /  0mm 0 W/m2
23:24 59 °F /  15 °C 56.2 °F /  13.4 °C 30.02in /  1016.5hPa Calm     90.3% 0.00in /  0mm 0 W/m2
23:29 59 °F /  15 °C 56.2 °F /  13.4 °C 30.02in /  1016.5hPa Calm     90.4% 0.00in /  0mm 0 W/m2
23:34 58.9 °F /  14.9 °C 56 °F /  13.3 °C 30.02in /  1016.5hPa Calm     90% 0.00in /  0mm 0 W/m2
23:39 58.8 °F /  14.9 °C 55.9 °F /  13.3 °C 30.02in /  1016.5hPa Calm     90% 0.00in /  0mm 0 W/m2
23:44 58.8 °F /  14.9 °C 55.9 °F /  13.3 °C 30.02in /  1016.5hPa Calm     90% 0.00in /  0mm 0 W/m2
23:49 58.8 °F /  14.9 °C 55.8 °F /  13.2 °C 30.02in /  1016.5hPa Calm     90% 0.00in /  0mm 0 W/m2
23:54 58.7 °F /  14.8 °C 55.8 °F /  13.2 °C 30.02in /  1016.5hPa Calm     90% 0.00in /  0mm 0 W/m2
23:59 58.8 °F /  14.9 °C 55.8 °F /  13.2 °C 30.01in /  1016.1hPa Calm     90% 0.00in /  0mm 0 W/m2
Hartford County Weather
Compliments of Weather Underground - 2 mb